sensor_id;sensor_type;location;lat;lon;timestamp;P1;durP1;ratioP1;P2;durP2;ratioP2
47383;SDS011;33129;52.232;5.192;2022-07-19T00:02:05;10.45;;;5.97;;
47383;SDS011;33129;52.232;5.192;2022-07-19T00:04:34;12.10;;;6.30;;
47383;SDS011;33129;52.232;5.192;2022-07-19T00:07:00;8.10;;;5.68;;
47383;SDS011;33129;52.232;5.192;2022-07-19T00:09:27;11.25;;;5.68;;
47383;SDS011;33129;52.232;5.192;2022-07-19T00:11:53;9.95;;;6.15;;
47383;SDS011;33129;52.232;5.192;2022-07-19T00:14:19;9.90;;;5.75;;
47383;SDS011;33129;52.232;5.192;2022-07-19T00:16:46;11.95;;;5.70;;
47383;SDS011;33129;52.232;5.192;2022-07-19T00:19:12;8.77;;;5.68;;
47383;SDS011;33129;52.232;5.192;2022-07-19T00:21:37;11.13;;;5.45;;
47383;SDS011;33129;52.232;5.192;2022-07-19T00:24:03;10.82;;;6.18;;
47383;SDS011;33129;52.232;5.192;2022-07-19T00:26:29;11.20;;;5.90;;
47383;SDS011;33129;52.232;5.192;2022-07-19T00:28:56;7.93;;;5.45;;
47383;SDS011;33129;52.232;5.192;2022-07-19T00:31:22;10.80;;;5.63;;
47383;SDS011;33129;52.232;5.192;2022-07-19T00:33:49;11.23;;;6.72;;
47383;SDS011;33129;52.232;5.192;2022-07-19T00:36:16;12.15;;;6.57;;
47383;SDS011;33129;52.232;5.192;2022-07-19T00:38:43;10.32;;;5.90;;
47383;SDS011;33129;52.232;5.192;2022-07-19T00:41:09;8.75;;;4.97;;
47383;SDS011;33129;52.232;5.192;2022-07-19T00:43:35;13.55;;;5.80;;
47383;SDS011;33129;52.232;5.192;2022-07-19T00:46:10;8.27;;;5.93;;
47383;SDS011;33129;52.232;5.192;2022-07-19T00:48:41;8.40;;;5.32;;
47383;SDS011;33129;52.232;5.192;2022-07-19T00:51:10;10.98;;;5.80;;
47383;SDS011;33129;52.232;5.192;2022-07-19T00:53:38;8.48;;;5.00;;
47383;SDS011;33129;52.232;5.192;2022-07-19T00:56:05;8.93;;;5.50;;
47383;SDS011;33129;52.232;5.192;2022-07-19T00:58:37;10.50;;;5.60;;
47383;SDS011;33129;52.232;5.192;2022-07-19T01:01:05;9.02;;;4.95;;
47383;SDS011;33129;52.232;5.192;2022-07-19T01:03:34;8.88;;;5.43;;
47383;SDS011;33129;52.232;5.192;2022-07-19T01:06:02;9.93;;;5.53;;
47383;SDS011;33129;52.232;5.192;2022-07-19T01:08:28;8.32;;;5.63;;
47383;SDS011;33129;52.232;5.192;2022-07-19T01:10:54;10.25;;;5.63;;
47383;SDS011;33129;52.232;5.192;2022-07-19T01:13:20;8.30;;;5.10;;
47383;SDS011;33129;52.232;5.192;2022-07-19T01:15:46;8.10;;;5.15;;
47383;SDS011;33129;52.232;5.192;2022-07-19T01:18:12;9.07;;;5.15;;
47383;SDS011;33129;52.232;5.192;2022-07-19T01:20:37;9.68;;;5.28;;
47383;SDS011;33129;52.232;5.192;2022-07-19T01:23:03;8.57;;;5.57;;
47383;SDS011;33129;52.232;5.192;2022-07-19T01:25:31;9.25;;;5.38;;
47383;SDS011;33129;52.232;5.192;2022-07-19T01:27:59;11.27;;;5.85;;
47383;SDS011;33129;52.232;5.192;2022-07-19T01:30:25;9.27;;;6.00;;
47383;SDS011;33129;52.232;5.192;2022-07-19T01:32:52;9.98;;;5.78;;
47383;SDS011;33129;52.232;5.192;2022-07-19T01:35:19;9.95;;;5.63;;
47383;SDS011;33129;52.232;5.192;2022-07-19T01:37:46;10.73;;;6.05;;
47383;SDS011;33129;52.232;5.192;2022-07-19T01:40:14;9.63;;;6.28;;
47383;SDS011;33129;52.232;5.192;2022-07-19T01:42:42;10.70;;;6.40;;
47383;SDS011;33129;52.232;5.192;2022-07-19T01:45:09;12.38;;;6.40;;
47383;SDS011;33129;52.232;5.192;2022-07-19T01:47:36;9.77;;;6.05;;
47383;SDS011;33129;52.232;5.192;2022-07-19T01:50:03;9.15;;;6.05;;
47383;SDS011;33129;52.232;5.192;2022-07-19T01:52:30;10.73;;;6.40;;
47383;SDS011;33129;52.232;5.192;2022-07-19T01:54:57;9.10;;;6.07;;
47383;SDS011;33129;52.232;5.192;2022-07-19T01:57:22;11.23;;;6.28;;
47383;SDS011;33129;52.232;5.192;2022-07-19T01:59:48;13.27;;;6.97;;
47383;SDS011;33129;52.232;5.192;2022-07-19T02:02:14;12.13;;;6.18;;
47383;SDS011;33129;52.232;5.192;2022-07-19T02:04:39;12.35;;;6.05;;
47383;SDS011;33129;52.232;5.192;2022-07-19T02:07:05;10.57;;;6.13;;
47383;SDS011;33129;52.232;5.192;2022-07-19T02:09:31;12.50;;;7.10;;
47383;SDS011;33129;52.232;5.192;2022-07-19T02:11:56;9.95;;;6.35;;
47383;SDS011;33129;52.232;5.192;2022-07-19T02:14:22;10.65;;;6.68;;
47383;SDS011;33129;52.232;5.192;2022-07-19T02:16:48;11.77;;;7.53;;
47383;SDS011;33129;52.232;5.192;2022-07-19T02:19:14;13.05;;;7.25;;
47383;SDS011;33129;52.232;5.192;2022-07-19T02:21:39;10.55;;;7.03;;
47383;SDS011;33129;52.232;5.192;2022-07-19T02:24:06;10.82;;;7.40;;
47383;SDS011;33129;52.232;5.192;2022-07-19T02:26:33;9.90;;;7.38;;
47383;SDS011;33129;52.232;5.192;2022-07-19T02:28:59;9.65;;;7.00;;
47383;SDS011;33129;52.232;5.192;2022-07-19T02:31:25;9.43;;;6.63;;
47383;SDS011;33129;52.232;5.192;2022-07-19T02:33:51;15.30;;;7.15;;
47383;SDS011;33129;52.232;5.192;2022-07-19T02:36:17;13.05;;;6.90;;
47383;SDS011;33129;52.232;5.192;2022-07-19T02:38:44;8.40;;;6.35;;
47383;SDS011;33129;52.232;5.192;2022-07-19T02:41:10;12.32;;;7.30;;
47383;SDS011;33129;52.232;5.192;2022-07-19T02:43:36;11.20;;;6.80;;
47383;SDS011;33129;52.232;5.192;2022-07-19T02:46:02;11.00;;;6.47;;
47383;SDS011;33129;52.232;5.192;2022-07-19T02:48:28;10.50;;;6.75;;
47383;SDS011;33129;52.232;5.192;2022-07-19T02:50:54;10.27;;;6.18;;
47383;SDS011;33129;52.232;5.192;2022-07-19T02:53:20;8.85;;;5.85;;
47383;SDS011;33129;52.232;5.192;2022-07-19T02:55:45;12.52;;;6.72;;
47383;SDS011;33129;52.232;5.192;2022-07-19T02:58:11;10.70;;;6.35;;
47383;SDS011;33129;52.232;5.192;2022-07-19T03:00:37;7.53;;;5.20;;
47383;SDS011;33129;52.232;5.192;2022-07-19T03:03:03;8.35;;;5.38;;
47383;SDS011;33129;52.232;5.192;2022-07-19T03:05:47;8.55;;;5.70;;
47383;SDS011;33129;52.232;5.192;2022-07-19T03:08:14;12.05;;;6.60;;
47383;SDS011;33129;52.232;5.192;2022-07-19T03:10:40;11.00;;;6.72;;
47383;SDS011;33129;52.232;5.192;2022-07-19T03:13:05;9.93;;;6.25;;
47383;SDS011;33129;52.232;5.192;2022-07-19T03:15:32;9.73;;;6.40;;
47383;SDS011;33129;52.232;5.192;2022-07-19T03:17:57;9.48;;;6.43;;
47383;SDS011;33129;52.232;5.192;2022-07-19T03:20:23;11.32;;;6.20;;
47383;SDS011;33129;52.232;5.192;2022-07-19T03:22:49;10.88;;;6.15;;
47383;SDS011;33129;52.232;5.192;2022-07-19T03:25:14;10.40;;;6.07;;
47383;SDS011;33129;52.232;5.192;2022-07-19T03:27:40;10.32;;;6.93;;
47383;SDS011;33129;52.232;5.192;2022-07-19T03:30:06;11.57;;;6.43;;
47383;SDS011;33129;52.232;5.192;2022-07-19T03:32:32;9.50;;;6.53;;
47383;SDS011;33129;52.232;5.192;2022-07-19T03:34:58;9.20;;;6.53;;
47383;SDS011;33129;52.232;5.192;2022-07-19T03:37:24;9.30;;;6.40;;
47383;SDS011;33129;52.232;5.192;2022-07-19T03:39:49;9.60;;;6.90;;
47383;SDS011;33129;52.232;5.192;2022-07-19T03:42:15;10.52;;;6.90;;
47383;SDS011;33129;52.232;5.192;2022-07-19T03:44:41;11.25;;;7.32;;
47383;SDS011;33129;52.232;5.192;2022-07-19T03:47:06;9.30;;;6.70;;
47383;SDS011;33129;52.232;5.192;2022-07-19T03:49:32;14.05;;;8.00;;
47383;SDS011;33129;52.232;5.192;2022-07-19T03:51:58;11.48;;;7.47;;
47383;SDS011;33129;52.232;5.192;2022-07-19T03:54:24;11.10;;;7.38;;
47383;SDS011;33129;52.232;5.192;2022-07-19T03:56:49;10.55;;;7.38;;
47383;SDS011;33129;52.232;5.192;2022-07-19T03:59:15;14.32;;;7.70;;
47383;SDS011;33129;52.232;5.192;2022-07-19T04:01:41;12.20;;;8.10;;
47383;SDS011;33129;52.232;5.192;2022-07-19T04:04:07;12.27;;;8.25;;
47383;SDS011;33129;52.232;5.192;2022-07-19T04:06:33;11.40;;;8.07;;
47383;SDS011;33129;52.232;5.192;2022-07-19T04:08:58;11.75;;;8.15;;
47383;SDS011;33129;52.232;5.192;2022-07-19T04:11:24;12.02;;;7.93;;
47383;SDS011;33129;52.232;5.192;2022-07-19T04:13:50;11.73;;;8.05;;
47383;SDS011;33129;52.232;5.192;2022-07-19T04:16:15;11.73;;;8.02;;
47383;SDS011;33129;52.232;5.192;2022-07-19T04:18:41;13.85;;;8.40;;
47383;SDS011;33129;52.232;5.192;2022-07-19T04:21:07;12.25;;;7.63;;
47383;SDS011;33129;52.232;5.192;2022-07-19T04:23:33;10.95;;;7.47;;
47383;SDS011;33129;52.232;5.192;2022-07-19T04:25:59;11.38;;;7.93;;
47383;SDS011;33129;52.232;5.192;2022-07-19T04:28:24;12.30;;;8.52;;
47383;SDS011;33129;52.232;5.192;2022-07-19T04:30:50;12.20;;;8.45;;
47383;SDS011;33129;52.232;5.192;2022-07-19T04:33:16;10.45;;;7.93;;
47383;SDS011;33129;52.232;5.192;2022-07-19T04:35:43;12.40;;;8.88;;
47383;SDS011;33129;52.232;5.192;2022-07-19T04:38:10;12.07;;;8.20;;
47383;SDS011;33129;52.232;5.192;2022-07-19T04:40:36;14.00;;;8.57;;
47383;SDS011;33129;52.232;5.192;2022-07-19T04:43:03;13.00;;;8.30;;
47383;SDS011;33129;52.232;5.192;2022-07-19T04:45:29;17.73;;;9.75;;
47383;SDS011;33129;52.232;5.192;2022-07-19T04:47:54;11.20;;;8.43;;
47383;SDS011;33129;52.232;5.192;2022-07-19T04:50:20;14.55;;;8.38;;
47383;SDS011;33129;52.232;5.192;2022-07-19T04:52:46;11.88;;;8.48;;
47383;SDS011;33129;52.232;5.192;2022-07-19T04:55:12;13.85;;;8.73;;
47383;SDS011;33129;52.232;5.192;2022-07-19T04:57:38;10.98;;;7.75;;
47383;SDS011;33129;52.232;5.192;2022-07-19T05:00:05;11.90;;;8.13;;
47383;SDS011;33129;52.232;5.192;2022-07-19T05:02:37;12.52;;;8.77;;
47383;SDS011;33129;52.232;5.192;2022-07-19T05:05:03;11.18;;;7.68;;
47383;SDS011;33129;52.232;5.192;2022-07-19T05:07:30;12.48;;;8.55;;
47383;SDS011;33129;52.232;5.192;2022-07-19T05:09:56;10.48;;;7.95;;
47383;SDS011;33129;52.232;5.192;2022-07-19T05:12:22;10.35;;;8.25;;
47383;SDS011;33129;52.232;5.192;2022-07-19T05:14:48;13.90;;;8.13;;
47383;SDS011;33129;52.232;5.192;2022-07-19T05:17:13;11.63;;;9.00;;
47383;SDS011;33129;52.232;5.192;2022-07-19T05:19:40;15.63;;;9.50;;
47383;SDS011;33129;52.232;5.192;2022-07-19T05:22:06;11.43;;;8.32;;
47383;SDS011;33129;52.232;5.192;2022-07-19T05:24:32;13.32;;;8.57;;
47383;SDS011;33129;52.232;5.192;2022-07-19T05:26:58;12.10;;;8.43;;
47383;SDS011;33129;52.232;5.192;2022-07-19T05:29:24;17.52;;;9.13;;
47383;SDS011;33129;52.232;5.192;2022-07-19T05:31:50;11.00;;;8.07;;
47383;SDS011;33129;52.232;5.192;2022-07-19T05:34:15;9.50;;;7.90;;
47383;SDS011;33129;52.232;5.192;2022-07-19T05:36:41;13.45;;;8.27;;
47383;SDS011;33129;52.232;5.192;2022-07-19T05:39:07;18.95;;;8.70;;
47383;SDS011;33129;52.232;5.192;2022-07-19T05:41:33;11.77;;;8.32;;
47383;SDS011;33129;52.232;5.192;2022-07-19T05:43:59;10.43;;;8.00;;
47383;SDS011;33129;52.232;5.192;2022-07-19T05:46:25;13.35;;;9.48;;
47383;SDS011;33129;52.232;5.192;2022-07-19T05:48:51;15.38;;;8.38;;
47383;SDS011;33129;52.232;5.192;2022-07-19T05:51:17;16.10;;;8.20;;
47383;SDS011;33129;52.232;5.192;2022-07-19T05:53:42;12.30;;;8.05;;
47383;SDS011;33129;52.232;5.192;2022-07-19T05:56:08;11.30;;;7.60;;
47383;SDS011;33129;52.232;5.192;2022-07-19T05:58:34;9.57;;;7.60;;
47383;SDS011;33129;52.232;5.192;2022-07-19T06:01:01;10.73;;;7.10;;
47383;SDS011;33129;52.232;5.192;2022-07-19T06:03:48;11.63;;;7.75;;
47383;SDS011;33129;52.232;5.192;2022-07-19T06:06:20;11.90;;;7.25;;
47383;SDS011;33129;52.232;5.192;2022-07-19T06:08:47;8.77;;;6.97;;
47383;SDS011;33129;52.232;5.192;2022-07-19T06:11:14;12.20;;;7.95;;
47383;SDS011;33129;52.232;5.192;2022-07-19T06:13:42;11.30;;;7.32;;
47383;SDS011;33129;52.232;5.192;2022-07-19T06:16:10;10.65;;;6.75;;
47383;SDS011;33129;52.232;5.192;2022-07-19T06:18:36;12.85;;;6.40;;
47383;SDS011;33129;52.232;5.192;2022-07-19T06:21:04;9.93;;;6.97;;
47383;SDS011;33129;52.232;5.192;2022-07-19T06:23:35;11.27;;;7.13;;
47383;SDS011;33129;52.232;5.192;2022-07-19T06:26:02;11.35;;;6.68;;
47383;SDS011;33129;52.232;5.192;2022-07-19T06:28:29;11.48;;;5.70;;
47383;SDS011;33129;52.232;5.192;2022-07-19T06:30:55;11.90;;;5.93;;
47383;SDS011;33129;52.232;5.192;2022-07-19T06:33:22;10.20;;;5.68;;
47383;SDS011;33129;52.232;5.192;2022-07-19T06:35:48;9.13;;;5.28;;
47383;SDS011;33129;52.232;5.192;2022-07-19T06:38:14;9.60;;;5.35;;
47383;SDS011;33129;52.232;5.192;2022-07-19T06:40:40;10.52;;;5.18;;
47383;SDS011;33129;52.232;5.192;2022-07-19T06:43:06;9.52;;;4.40;;
47383;SDS011;33129;52.232;5.192;2022-07-19T06:45:32;11.10;;;5.57;;
47383;SDS011;33129;52.232;5.192;2022-07-19T06:47:58;8.98;;;5.13;;
47383;SDS011;33129;52.232;5.192;2022-07-19T06:50:24;10.82;;;5.40;;
47383;SDS011;33129;52.232;5.192;2022-07-19T06:52:50;8.98;;;5.30;;
47383;SDS011;33129;52.232;5.192;2022-07-19T06:55:16;9.07;;;4.78;;
47383;SDS011;33129;52.232;5.192;2022-07-19T06:57:42;9.20;;;4.65;;
47383;SDS011;33129;52.232;5.192;2022-07-19T07:00:08;10.15;;;4.57;;
47383;SDS011;33129;52.232;5.192;2022-07-19T07:02:35;9.32;;;4.50;;
47383;SDS011;33129;52.232;5.192;2022-07-19T07:05:01;8.38;;;4.07;;
47383;SDS011;33129;52.232;5.192;2022-07-19T07:07:28;10.73;;;4.70;;
47383;SDS011;33129;52.232;5.192;2022-07-19T07:09:55;7.18;;;4.15;;
47383;SDS011;33129;52.232;5.192;2022-07-19T07:12:21;8.65;;;4.40;;
47383;SDS011;33129;52.232;5.192;2022-07-19T07:14:47;8.75;;;4.57;;
47383;SDS011;33129;52.232;5.192;2022-07-19T07:17:12;9.55;;;4.63;;
47383;SDS011;33129;52.232;5.192;2022-07-19T07:19:38;12.38;;;4.35;;
47383;SDS011;33129;52.232;5.192;2022-07-19T07:22:04;10.00;;;4.68;;
47383;SDS011;33129;52.232;5.192;2022-07-19T07:24:30;10.75;;;4.35;;
47383;SDS011;33129;52.232;5.192;2022-07-19T07:26:56;9.52;;;3.78;;
47383;SDS011;33129;52.232;5.192;2022-07-19T07:29:21;9.02;;;4.07;;
47383;SDS011;33129;52.232;5.192;2022-07-19T07:31:47;8.32;;;3.50;;
47383;SDS011;33129;52.232;5.192;2022-07-19T07:34:13;9.18;;;3.60;;
47383;SDS011;33129;52.232;5.192;2022-07-19T07:36:39;7.82;;;3.72;;
47383;SDS011;33129;52.232;5.192;2022-07-19T07:39:05;8.95;;;3.67;;
47383;SDS011;33129;52.232;5.192;2022-07-19T07:41:31;7.25;;;3.40;;
47383;SDS011;33129;52.232;5.192;2022-07-19T07:43:56;6.97;;;3.28;;
47383;SDS011;33129;52.232;5.192;2022-07-19T07:46:22;8.65;;;3.30;;
47383;SDS011;33129;52.232;5.192;2022-07-19T07:48:48;7.00;;;3.17;;
47383;SDS011;33129;52.232;5.192;2022-07-19T07:51:13;7.43;;;3.20;;
47383;SDS011;33129;52.232;5.192;2022-07-19T07:53:39;6.95;;;3.08;;
47383;SDS011;33129;52.232;5.192;2022-07-19T07:56:05;6.93;;;2.63;;
47383;SDS011;33129;52.232;5.192;2022-07-19T07:58:31;6.38;;;2.67;;
47383;SDS011;33129;52.232;5.192;2022-07-19T08:00:57;11.20;;;3.13;;
47383;SDS011;33129;52.232;5.192;2022-07-19T08:03:22;6.00;;;3.10;;
47383;SDS011;33129;52.232;5.192;2022-07-19T08:05:48;7.80;;;2.88;;
47383;SDS011;33129;52.232;5.192;2022-07-19T08:08:14;7.78;;;3.10;;
47383;SDS011;33129;52.232;5.192;2022-07-19T08:10:40;9.40;;;3.42;;
47383;SDS011;33129;52.232;5.192;2022-07-19T08:13:06;9.88;;;2.83;;
47383;SDS011;33129;52.232;5.192;2022-07-19T08:15:33;7.45;;;2.83;;
47383;SDS011;33129;52.232;5.192;2022-07-19T08:18:02;7.00;;;2.70;;
47383;SDS011;33129;52.232;5.192;2022-07-19T08:20:28;8.05;;;3.08;;
47383;SDS011;33129;52.232;5.192;2022-07-19T08:22:54;6.88;;;3.03;;
47383;SDS011;33129;52.232;5.192;2022-07-19T08:25:20;7.25;;;2.80;;
47383;SDS011;33129;52.232;5.192;2022-07-19T08:27:45;7.53;;;2.60;;
47383;SDS011;33129;52.232;5.192;2022-07-19T08:30:11;6.22;;;2.60;;
47383;SDS011;33129;52.232;5.192;2022-07-19T08:32:38;5.43;;;2.45;;
47383;SDS011;33129;52.232;5.192;2022-07-19T08:35:05;6.95;;;2.78;;
47383;SDS011;33129;52.232;5.192;2022-07-19T08:37:33;8.52;;;2.80;;
47383;SDS011;33129;52.232;5.192;2022-07-19T08:39:59;5.82;;;2.55;;
47383;SDS011;33129;52.232;5.192;2022-07-19T08:42:26;10.68;;;2.55;;
47383;SDS011;33129;52.232;5.192;2022-07-19T08:44:53;5.07;;;2.15;;
47383;SDS011;33129;52.232;5.192;2022-07-19T08:47:19;8.48;;;2.40;;
47383;SDS011;33129;52.232;5.192;2022-07-19T08:49:47;6.80;;;2.28;;
47383;SDS011;33129;52.232;5.192;2022-07-19T08:52:14;7.97;;;2.72;;
47383;SDS011;33129;52.232;5.192;2022-07-19T08:54:41;8.02;;;2.65;;
47383;SDS011;33129;52.232;5.192;2022-07-19T08:57:07;9.13;;;2.72;;
47383;SDS011;33129;52.232;5.192;2022-07-19T08:59:51;5.57;;;2.33;;
47383;SDS011;33129;52.232;5.192;2022-07-19T09:02:17;6.22;;;2.50;;
47383;SDS011;33129;52.232;5.192;2022-07-19T09:04:42;10.32;;;3.08;;
47383;SDS011;33129;52.232;5.192;2022-07-19T09:07:08;6.82;;;2.08;;
47383;SDS011;33129;52.232;5.192;2022-07-19T09:09:34;8.68;;;2.63;;
47383;SDS011;33129;52.232;5.192;2022-07-19T09:12:03;5.50;;;2.30;;
47383;SDS011;33129;52.232;5.192;2022-07-19T09:14:31;7.97;;;2.60;;
47383;SDS011;33129;52.232;5.192;2022-07-19T09:19:38;7.18;;;2.10;;
47383;SDS011;33129;52.232;5.192;2022-07-19T09:22:11;6.45;;;2.40;;
47383;SDS011;33129;52.232;5.192;2022-07-19T09:24:41;6.20;;;2.20;;
47383;SDS011;33129;52.232;5.192;2022-07-19T09:27:13;6.35;;;2.00;;
47383;SDS011;33129;52.232;5.192;2022-07-19T09:29:48;4.93;;;2.40;;
47383;SDS011;33129;52.232;5.192;2022-07-19T09:32:21;5.05;;;2.42;;
47383;SDS011;33129;52.232;5.192;2022-07-19T09:34:51;5.90;;;2.35;;
47383;SDS011;33129;52.232;5.192;2022-07-19T09:37:27;4.63;;;2.38;;
47383;SDS011;33129;52.232;5.192;2022-07-19T09:40:02;5.72;;;2.42;;
47383;SDS011;33129;52.232;5.192;2022-07-19T09:42:36;6.90;;;2.45;;
47383;SDS011;33129;52.232;5.192;2022-07-19T09:47:50;7.65;;;2.65;;
47383;SDS011;33129;52.232;5.192;2022-07-19T09:50:17;9.13;;;2.90;;
47383;SDS011;33129;52.232;5.192;2022-07-19T09:52:47;8.18;;;2.60;;
47383;SDS011;33129;52.232;5.192;2022-07-19T09:55:15;15.07;;;3.83;;
47383;SDS011;33129;52.232;5.192;2022-07-19T09:57:46;10.18;;;2.75;;
47383;SDS011;33129;52.232;5.192;2022-07-19T10:00:14;7.60;;;2.65;;
47383;SDS011;33129;52.232;5.192;2022-07-19T10:02:44;9.80;;;2.60;;
47383;SDS011;33129;52.232;5.192;2022-07-19T10:05:15;5.82;;;2.35;;
47383;SDS011;33129;52.232;5.192;2022-07-19T10:07:42;5.40;;;2.28;;
47383;SDS011;33129;52.232;5.192;2022-07-19T10:10:23;9.25;;;2.65;;
47383;SDS011;33129;52.232;5.192;2022-07-19T10:12:55;7.50;;;2.65;;
47383;SDS011;33129;52.232;5.192;2022-07-19T10:15:22;7.05;;;2.45;;
47383;SDS011;33129;52.232;5.192;2022-07-19T10:20:21;6.40;;;2.22;;
47383;SDS011;33129;52.232;5.192;2022-07-19T10:22:49;8.40;;;2.33;;
47383;SDS011;33129;52.232;5.192;2022-07-19T10:25:16;8.00;;;2.30;;
47383;SDS011;33129;52.232;5.192;2022-07-19T10:27:44;6.80;;;2.13;;
47383;SDS011;33129;52.232;5.192;2022-07-19T10:32:42;6.43;;;2.03;;
47383;SDS011;33129;52.232;5.192;2022-07-19T10:37:51;5.07;;;2.20;;
47383;SDS011;33129;52.232;5.192;2022-07-19T10:48:36;8.32;;;2.45;;
47383;SDS011;33129;52.232;5.192;2022-07-19T10:51:28;6.88;;;2.08;;
47383;SDS011;33129;52.232;5.192;2022-07-19T10:57:04;5.65;;;2.30;;
47383;SDS011;33129;52.232;5.192;2022-07-19T10:59:31;6.95;;;2.05;;
47383;SDS011;33129;52.232;5.192;2022-07-19T11:02:06;5.95;;;2.13;;
47383;SDS011;33129;52.232;5.192;2022-07-19T11:04:33;4.75;;;2.03;;
47383;SDS011;33129;52.232;5.192;2022-07-19T11:09:45;6.78;;;1.83;;
47383;SDS011;33129;52.232;5.192;2022-07-19T11:12:26;5.00;;;2.08;;
47383;SDS011;33129;52.232;5.192;2022-07-19T11:15:00;4.25;;;1.65;;
47383;SDS011;33129;52.232;5.192;2022-07-19T11:17:29;5.53;;;1.73;;
47383;SDS011;33129;52.232;5.192;2022-07-19T11:20:00;5.43;;;1.80;;
47383;SDS011;33129;52.232;5.192;2022-07-19T11:22:37;5.28;;;1.88;;
47383;SDS011;33129;52.232;5.192;2022-07-19T11:25:07;8.20;;;2.10;;
47383;SDS011;33129;52.232;5.192;2022-07-19T11:27:35;4.85;;;1.65;;
47383;SDS011;33129;52.232;5.192;2022-07-19T11:30:06;4.40;;;1.60;;
47383;SDS011;33129;52.232;5.192;2022-07-19T11:32:32;5.18;;;1.50;;
47383;SDS011;33129;52.232;5.192;2022-07-19T11:35:00;6.30;;;2.00;;
47383;SDS011;33129;52.232;5.192;2022-07-19T11:37:33;3.95;;;1.60;;
47383;SDS011;33129;52.232;5.192;2022-07-19T11:40:01;6.13;;;1.77;;
47383;SDS011;33129;52.232;5.192;2022-07-19T11:42:42;4.80;;;1.63;;
47383;SDS011;33129;52.232;5.192;2022-07-19T11:45:17;7.65;;;2.22;;
47383;SDS011;33129;52.232;5.192;2022-07-19T11:47:53;3.60;;;1.58;;
47383;SDS011;33129;52.232;5.192;2022-07-19T11:50:22;5.28;;;1.45;;
47383;SDS011;33129;52.232;5.192;2022-07-19T11:52:54;3.53;;;1.38;;
47383;SDS011;33129;52.232;5.192;2022-07-19T11:55:23;3.65;;;1.33;;
47383;SDS011;33129;52.232;5.192;2022-07-19T11:57:53;7.60;;;1.55;;
47383;SDS011;33129;52.232;5.192;2022-07-19T12:00:21;5.78;;;1.90;;
47383;SDS011;33129;52.232;5.192;2022-07-19T12:02:58;5.78;;;1.83;;
47383;SDS011;33129;52.232;5.192;2022-07-19T12:05:33;6.07;;;1.90;;
47383;SDS011;33129;52.232;5.192;2022-07-19T12:08:07;10.68;;;1.75;;
47383;SDS011;33129;52.232;5.192;2022-07-19T12:10:44;6.65;;;1.73;;
47383;SDS011;33129;52.232;5.192;2022-07-19T12:13:27;5.40;;;2.13;;
47383;SDS011;33129;52.232;5.192;2022-07-19T12:16:16;5.13;;;1.45;;
47383;SDS011;33129;52.232;5.192;2022-07-19T12:18:44;4.40;;;1.70;;
47383;SDS011;33129;52.232;5.192;2022-07-19T12:24:08;4.97;;;1.88;;
47383;SDS011;33129;52.232;5.192;2022-07-19T12:26:39;5.20;;;1.50;;
47383;SDS011;33129;52.232;5.192;2022-07-19T12:29:18;4.20;;;1.90;;
47383;SDS011;33129;52.232;5.192;2022-07-19T12:31:47;4.53;;;1.77;;
47383;SDS011;33129;52.232;5.192;2022-07-19T12:34:16;3.80;;;1.60;;
47383;SDS011;33129;52.232;5.192;2022-07-19T12:36:43;3.50;;;1.55;;
47383;SDS011;33129;52.232;5.192;2022-07-19T12:39:23;4.47;;;1.70;;
47383;SDS011;33129;52.232;5.192;2022-07-19T12:41:54;5.75;;;1.90;;
47383;SDS011;33129;52.232;5.192;2022-07-19T12:44:30;5.80;;;1.98;;
47383;SDS011;33129;52.232;5.192;2022-07-19T12:46:59;5.68;;;1.85;;
47383;SDS011;33129;52.232;5.192;2022-07-19T12:49:25;7.18;;;2.15;;
47383;SDS011;33129;52.232;5.192;2022-07-19T12:52:05;4.35;;;1.65;;
47383;SDS011;33129;52.232;5.192;2022-07-19T12:54:30;5.82;;;1.80;;
47383;SDS011;33129;52.232;5.192;2022-07-19T12:56:56;5.13;;;1.80;;
47383;SDS011;33129;52.232;5.192;2022-07-19T12:59:22;6.93;;;2.17;;
47383;SDS011;33129;52.232;5.192;2022-07-19T13:02:06;4.55;;;1.48;;
47383;SDS011;33129;52.232;5.192;2022-07-19T13:04:36;4.97;;;2.10;;
47383;SDS011;33129;52.232;5.192;2022-07-19T13:07:03;4.95;;;1.50;;
47383;SDS011;33129;52.232;5.192;2022-07-19T13:09:31;4.47;;;1.67;;
47383;SDS011;33129;52.232;5.192;2022-07-19T13:11:59;5.38;;;1.58;;
47383;SDS011;33129;52.232;5.192;2022-07-19T13:14:26;6.70;;;2.03;;
47383;SDS011;33129;52.232;5.192;2022-07-19T13:16:52;6.88;;;1.60;;
47383;SDS011;33129;52.232;5.192;2022-07-19T13:19:18;4.22;;;1.60;;
47383;SDS011;33129;52.232;5.192;2022-07-19T13:21:44;4.72;;;1.70;;
47383;SDS011;33129;52.232;5.192;2022-07-19T13:24:10;5.05;;;1.58;;
47383;SDS011;33129;52.232;5.192;2022-07-19T13:26:36;5.57;;;2.25;;
47383;SDS011;33129;52.232;5.192;2022-07-19T13:29:02;4.35;;;1.60;;
47383;SDS011;33129;52.232;5.192;2022-07-19T13:31:28;3.92;;;1.48;;
47383;SDS011;33129;52.232;5.192;2022-07-19T13:33:54;4.75;;;1.88;;
47383;SDS011;33129;52.232;5.192;2022-07-19T13:36:22;3.88;;;1.50;;
47383;SDS011;33129;52.232;5.192;2022-07-19T13:38:47;5.68;;;1.73;;
47383;SDS011;33129;52.232;5.192;2022-07-19T13:41:13;5.55;;;1.70;;
47383;SDS011;33129;52.232;5.192;2022-07-19T13:43:41;5.00;;;2.03;;
47383;SDS011;33129;52.232;5.192;2022-07-19T13:46:07;4.40;;;1.83;;
47383;SDS011;33129;52.232;5.192;2022-07-19T13:48:32;6.22;;;2.05;;
47383;SDS011;33129;52.232;5.192;2022-07-19T13:50:58;4.80;;;1.88;;
47383;SDS011;33129;52.232;5.192;2022-07-19T13:53:24;4.68;;;1.65;;
47383;SDS011;33129;52.232;5.192;2022-07-19T13:55:50;6.65;;;1.98;;
47383;SDS011;33129;52.232;5.192;2022-07-19T13:58:15;7.60;;;1.92;;
47383;SDS011;33129;52.232;5.192;2022-07-19T14:00:42;6.53;;;2.13;;
47383;SDS011;33129;52.232;5.192;2022-07-19T14:03:14;5.55;;;2.00;;
47383;SDS011;33129;52.232;5.192;2022-07-19T14:05:42;6.82;;;2.03;;
47383;SDS011;33129;52.232;5.192;2022-07-19T14:08:14;4.55;;;1.65;;
47383;SDS011;33129;52.232;5.192;2022-07-19T14:10:41;5.28;;;1.85;;
47383;SDS011;33129;52.232;5.192;2022-07-19T14:13:07;6.03;;;1.95;;
47383;SDS011;33129;52.232;5.192;2022-07-19T14:15:34;6.63;;;2.33;;
47383;SDS011;33129;52.232;5.192;2022-07-19T14:18:00;8.77;;;2.70;;
47383;SDS011;33129;52.232;5.192;2022-07-19T14:20:26;7.18;;;1.85;;
47383;SDS011;33129;52.232;5.192;2022-07-19T14:22:52;4.30;;;1.85;;
47383;SDS011;33129;52.232;5.192;2022-07-19T14:25:19;6.70;;;1.88;;
47383;SDS011;33129;52.232;5.192;2022-07-19T14:27:45;5.70;;;1.92;;
47383;SDS011;33129;52.232;5.192;2022-07-19T14:30:11;5.07;;;1.95;;
47383;SDS011;33129;52.232;5.192;2022-07-19T14:32:37;7.72;;;2.28;;
47383;SDS011;33129;52.232;5.192;2022-07-19T14:35:03;7.10;;;2.22;;
47383;SDS011;33129;52.232;5.192;2022-07-19T14:37:29;8.73;;;2.13;;
47383;SDS011;33129;52.232;5.192;2022-07-19T14:39:55;8.65;;;2.30;;
47383;SDS011;33129;52.232;5.192;2022-07-19T14:42:21;7.32;;;2.08;;
47383;SDS011;33129;52.232;5.192;2022-07-19T14:44:47;4.93;;;1.70;;
47383;SDS011;33129;52.232;5.192;2022-07-19T14:47:12;5.13;;;2.22;;
47383;SDS011;33129;52.232;5.192;2022-07-19T14:49:38;6.00;;;2.78;;
47383;SDS011;33129;52.232;5.192;2022-07-19T14:52:04;5.25;;;1.92;;
47383;SDS011;33129;52.232;5.192;2022-07-19T14:54:30;5.30;;;2.00;;
47383;SDS011;33129;52.232;5.192;2022-07-19T14:56:56;6.32;;;2.35;;
47383;SDS011;33129;52.232;5.192;2022-07-19T14:59:22;4.43;;;2.10;;
47383;SDS011;33129;52.232;5.192;2022-07-19T15:01:49;4.70;;;2.08;;
47383;SDS011;33129;52.232;5.192;2022-07-19T15:04:16;4.68;;;2.13;;
47383;SDS011;33129;52.232;5.192;2022-07-19T15:06:43;7.60;;;2.17;;
47383;SDS011;33129;52.232;5.192;2022-07-19T15:09:10;5.85;;;2.55;;
47383;SDS011;33129;52.232;5.192;2022-07-19T15:11:37;6.15;;;2.20;;
47383;SDS011;33129;52.232;5.192;2022-07-19T15:14:03;4.40;;;2.22;;
47383;SDS011;33129;52.232;5.192;2022-07-19T15:16:29;5.35;;;2.10;;